Flight Track Log - Related Links

Times and Time Zones

All times are in EDT time to prevent confusion due to time zone crossing. See the DAL268 flight status page for this flight to view local times or setup timezone preferences in your user account.

Time Position Orientation Groundspeed Altitude Reporting Facility
EDT Latitude Longitude Course Direction KTS MPH feet Rate Location/Type
Fri 02:28:21 PM 37.6667 -122.3167 67° East 202 232 2,700  Level Northern Cal TRACON
Fri 02:29:21 PM 37.7167 -122.2500 47° Northeast 259 298 5,300 2,629 Climbing Northern Cal TRACON
Fri 02:30:00 PM 37.6861 -122.1249 67° East  Level FlightAware Approximate
Fri 02:31:00 PM 37.7437 -121.9716 65° Northeast  Level FlightAware Approximate
Fri 02:31:19 PM 37.7761 -122.0958 64° Northeast 271 312 10,500  Level Oakland Center
Fri 02:32:00 PM 37.7998 -121.8172 65° Northeast  Level FlightAware Approximate
Fri 02:32:20 PM 37.8061 -121.9886 70° East 319 367 11,700  Level Oakland Center
Fri 02:33:00 PM 37.8469 -121.6593 67° East  Level FlightAware Approximate
Fri 02:33:22 PM 37.8386 -121.8717 71° East 352 405 14,000  Level Oakland Center
Fri 02:34:23 PM 37.8733 -121.7442 71° East 380 437 15,900 1,854 Climbing Oakland Center
Fri 02:35:25 PM 37.9103 -121.6125 70° East 396 456 17,800 1,935 Climbing Oakland Center
Fri 02:36:27 PM 37.9514 -121.4614 71° East 406 467 19,900 1,839 Climbing Oakland Center
Fri 02:37:29 PM 37.9892 -121.3219 71° East 417 480 21,600 1,561 Climbing Oakland Center
Fri 02:38:30 PM 38.0272 -121.1783 71° East 431 496 23,100 1,561 Climbing Oakland Center
Fri 02:39:32 PM 38.0764 -120.9992 71° East 452 520 24,800 1,548 Climbing Oakland Center
Fri 02:40:34 PM 38.1128 -120.8447 73° East 460 529 26,300 1,317 Climbing Oakland Center
Fri 02:41:35 PM 38.1497 -120.6867 73° East 469 540 27,500 1,220 Climbing Oakland Center
Fri 02:42:37 PM 38.1883 -120.5267 73° East 477 549 28,800 726 Climbing Oakland Center
Fri 02:43:39 PM 38.2261 -120.3647 73° East 478 550 29,000 98 Climbing Oakland Center
Fri 02:44:40 PM 38.2642 -120.2047 73° East 475 547 29,000  Level Oakland Center
Fri 02:45:42 PM 38.3050 -120.0408 72° East 485 558 29,000  Level Oakland Center
Fri 02:46:44 PM 38.3500 -119.8450 74° East 481 554 29,000  Level Oakland Center
Fri 02:47:45 PM 38.3869 -119.6842 74° East 477 549 29,000  Level Oakland Center
Fri 02:48:47 PM 38.4206 -119.5375 74° East 470 541 29,000  Level Oakland Center
Fri 02:49:49 PM 38.4558 -119.3806 74° East 465 535 29,000  Level Oakland Center
Fri 02:50:50 PM 38.4986 -119.1867 74° East 475 547 29,000  Level Oakland Center
Fri 02:51:52 PM 38.5189 -119.0150 81° East 491 565 29,000  Level Oakland Center
Fri 02:52:53 PM 38.5358 -118.8458 83° East 486 559 29,000  Level Oakland Center
Fri 02:53:55 PM 38.5531 -118.6742 83° East 489 563 29,000  Level Oakland Center
Fri 02:54:57 PM 38.5686 -118.5067 83° East 481 554 29,000  Level Oakland Center
Fri 02:55:58 PM 38.5856 -118.3442 82° East 468 539 29,000  Level Oakland Center
Fri 02:57:00 PM 38.6003 -118.1794 83° East 469 540 29,000  Level Oakland Center
Fri 02:58:01 PM 38.6186 -117.9825 83° East 468 539 29,000  Level Oakland Center
Fri 02:59:03 PM 38.6339 -117.8206 83° East 462 532 29,000  Level Oakland Center
Fri 03:00:05 PM 38.6478 -117.6572 84° East 459 528 29,000  Level Oakland Center
Fri 03:01:06 PM 38.6619 -117.4953 84° East 457 526 29,000  Level Oakland Center
Fri 03:02:08 PM 38.6758 -117.3353 84° East 451 519 29,000  Level Oakland Center
Fri 03:03:10 PM 38.6978 -117.1742 80° East 455 524 29,000  Level Oakland Center
Fri 03:04:11 PM 38.7214 -117.0094 80° East 464 534 29,000  Level Oakland Center
Fri 03:05:13 PM 38.7461 -116.8453 79° East 466 536 29,000  Level Oakland Center
Fri 03:06:14 PM 38.7708 -116.6778 79° East 474 545 29,000  Level Oakland Center
Fri 03:07:16 PM 38.7967 -116.5042 79° East 489 563 29,000  Level Oakland Center
Fri 03:08:17 PM 38.8261 -116.2947 80° East 496 571 29,000  Level Oakland Center
Fri 03:09:19 PM 38.8492 -116.1236 80° East 490 564 29,000  Level Oakland Center
Fri 03:10:47 PM 38.8822 -115.8914 80° East 474 545 29,000  Level Salt Lake Center
Fri 03:11:49 PM 38.9053 -115.7253 80° East 472 543 29,000  Level Salt Lake Center
Fri 03:12:50 PM 38.9294 -115.5589 79° East 474 545 29,000  Level Salt Lake Center
Fri 03:13:52 PM 38.9503 -115.3922 81° East 473 544 29,000  Level Salt Lake Center
Fri 03:14:54 PM 38.9764 -115.2106 79° East 482 555 29,000  Level Salt Lake Center
Fri 03:15:56 PM 38.9992 -115.0381 80° East 487 560 29,000  Level Salt Lake Center
Fri 03:16:58 PM 39.0214 -114.8639 81° East 492 566 29,000  Level Salt Lake Center
Fri 03:17:59 PM 39.0500 -114.6511 80° East 502 578 29,000  Level Salt Lake Center
Fri 03:19:01 PM 39.0728 -114.4731 81° East 504 580 29,000  Level Salt Lake Center
Fri 03:20:03 PM 39.0950 -114.2961 81° East 503 579 29,000  Level Salt Lake Center
Fri 03:21:05 PM 39.1167 -114.1178 81° East 505 581 29,000  Level Salt Lake Center
Fri 03:22:07 PM 39.1386 -113.9383 81° East 507 583 29,000  Level Salt Lake Center
Fri 03:23:09 PM 39.1600 -113.7589 81° East 508 585 29,000  Level Salt Lake Center
Fri 03:24:10 PM 39.1806 -113.5831 81° East 500 575 29,000  Level Salt Lake Center
Fri 03:25:12 PM 39.2058 -113.3725 81° East 497 572 29,000  Level Salt Lake Center
Fri 03:26:14 PM 39.2258 -113.1961 82° East 498 573 29,000  Level Salt Lake Center
Fri 03:27:16 PM 39.2458 -113.0214 82° East 495 570 29,000  Level Salt Lake Center
Fri 03:28:18 PM 39.2656 -112.8458 82° East 495 570 29,000  Level Salt Lake Center
Fri 03:29:20 PM 39.2839 -112.6681 82° East 497 572 29,000 49 Level Salt Lake Center
Fri 03:30:21 PM 39.3086 -112.4733 81° East 501 577 29,100 780 Climbing Salt Lake Center
Fri 03:31:23 PM 39.3411 -112.2953 77° East 508 585 30,600 1,306 Climbing Salt Lake Center
Fri 03:32:25 PM 39.3744 -112.1183 76° East 512 589 31,800 1,161 Climbing Salt Lake Center
Fri 03:33:27 PM 39.4081 -111.9397 76° East 514 592 33,000 1,065 Climbing Salt Lake Center
Fri 03:34:29 PM 39.4406 -111.7606 77° East 515 593 34,000 1,016 Climbing Salt Lake Center
Fri 03:35:31 PM 39.4800 -111.5456 77° East 514 592 35,100 968 Climbing Salt Lake Center
Fri 03:36:33 PM 39.5117 -111.3639 77° East 519 597 36,000 927 Climbing Salt Lake Center
Fri 03:37:34 PM 39.5461 -111.1750 77° East 515 593 37,000 488 Climbing Salt Lake Center
Fri 03:38:36 PM 39.5756 -111.0056 77° East 507 583 37,000  Level Salt Lake Center
Fri 03:39:38 PM 39.6106 -110.8053 77° East 510 587 37,000  Level Salt Lake Center
Fri 03:40:40 PM 39.6408 -110.6308 77° East 516 594 37,000  Level Salt Lake Center
Fri 03:41:42 PM 39.6747 -110.4275 78° East 518 596 37,000  Level Salt Lake Center
Fri 03:42:44 PM 39.7036 -110.2539 78° East 516 594 37,000  Level Salt Lake Center
Fri 03:43:46 PM 39.7319 -110.0800 78° East 516 594 37,000  Level Salt Lake Center
Fri 03:44:48 PM 39.7656 -109.8769 78° East 515 593 37,000  Level Salt Lake Center
Fri 03:45:50 PM 39.7939 -109.7031 78° East 514 592 37,000  Level Salt Lake Center
Fri 03:46:47 PM 39.8219 -109.5269 78° East 514 592 37,000  Level Denver Center
Fri 03:47:49 PM 39.8542 -109.3239 78° East 513 590 37,000  Level Denver Center
Fri 03:48:51 PM 39.8817 -109.1503 78° East 510 587 37,000  Level Denver Center
Fri 03:49:52 PM 39.9136 -108.9461 78° East 512 589 37,000  Level Denver Center
Fri 03:50:54 PM 39.9411 -108.7711 78° East 510 587 37,000  Level Denver Center
Fri 03:51:56 PM 39.9678 -108.5944 79° East 514 592 37,000  Level Denver Center
Fri 03:52:58 PM 39.9983 -108.3903 79° East 512 589 37,000  Level Denver Center
Fri 03:54:00 PM 40.0256 -108.2144 79° East 513 590 37,000  Level Denver Center
Fri 03:55:02 PM 40.0547 -108.0094 79° East 514 592 37,000  Level Denver Center
Fri 03:56:04 PM 40.0872 -107.8356 76° East 514 592 37,000  Level Denver Center
Fri 03:57:06 PM 40.1336 -107.6364 73° East 515 593 37,000  Level Denver Center
Fri 03:58:08 PM 40.1739 -107.4642 73° East 516 594 37,000  Level Denver Center
Fri 03:59:10 PM 40.2189 -107.2631 74° East 518 596 37,000  Level Denver Center
Fri 04:00:12 PM 40.2583 -107.0903 73° East 518 596 37,000  Level Denver Center
Fri 04:01:13 PM 40.2961 -106.9175 74° East 518 596 37,000  Level Denver Center
Fri 04:02:15 PM 40.3436 -106.7169 73° East 519 597 37,000  Level Denver Center
Fri 04:03:17 PM 40.3833 -106.5311 74° East 524 603 37,000  Level Denver Center
Fri 04:04:19 PM 40.4272 -106.3353 74° East 523 602 37,000  Level Denver Center
Fri 04:05:21 PM 40.4636 -106.1606 75° East 519 597 37,000  Level Denver Center
Fri 04:06:23 PM 40.5089 -105.9503 74° East 525 604 37,000  Level Denver Center
Fri 04:07:25 PM 40.5472 -105.7678 74° East 519 597 37,000  Level Denver Center
Fri 04:08:27 PM 40.5861 -105.5814 75° East 526 605 37,000  Level Denver Center
Fri 04:09:29 PM 40.6236 -105.3972 75° East 521 600 37,000  Level Denver Center
Fri 04:10:31 PM 40.6625 -105.2106 75° East 526 605 37,000  Level Denver Center
Fri 04:11:33 PM 40.7008 -105.0250 75° East 524 603 37,000  Level Denver Center
Fri 04:12:35 PM 40.7389 -104.8381 75° East 527 606 37,000  Level Denver Center
Fri 04:13:37 PM 40.7831 -104.6144 75° East 525 604 37,000  Level Denver Center
Fri 04:14:39 PM 40.8211 -104.4247 75° East 533 613 37,000  Level Denver Center
Fri 04:15:41 PM 40.8581 -104.2367 75° East 529 609 37,000  Level Denver Center
Fri 04:16:43 PM 40.8939 -104.0500 76° East 526 605 37,000  Level Denver Center
Fri 04:17:45 PM 40.9306 -103.8614 76° East 529 609 37,000  Level Denver Center
Fri 04:18:47 PM 40.9672 -103.6725 76° East 530 610 37,000  Level Denver Center
Fri 04:19:49 PM 41.0050 -103.4694 76° East 529 609 37,000  Level Denver Center
Fri 04:20:51 PM 41.0856 -103.2733 61° Northeast 546 628 37,000  Level Denver Center
Fri 04:21:53 PM 41.1542 -103.1053 61° Northeast 545 627 37,000 537 Level Denver Center
Fri 04:22:54 PM 41.2358 -102.9108 61° Northeast 542 624 38,100 780 Climbing Denver Center
Fri 04:23:56 PM 41.3078 -102.7453 60° Northeast 541 623 38,600 435 Climbing Denver Center
Fri 04:24:58 PM 41.3864 -102.5619 60° Northeast 543 625 39,000 194 Climbing Denver Center
Fri 04:26:00 PM 41.4583 -102.3933 60° Northeast 546 628 39,000  Level Denver Center
Fri 04:27:02 PM 41.5314 -102.1892 64° Northeast 544 626 39,000  Level Denver Center
Fri 04:28:04 PM 41.5747 -102.0031 73° East 546 628 39,000  Level Denver Center
Fri 04:29:06 PM 41.6242 -101.7903 73° East 538 619 39,000  Level Denver Center
Fri 04:30:08 PM 41.6672 -101.6083 72° East 537 618 39,000  Level Denver Center
Fri 04:31:10 PM 41.7211 -101.3944 71° East 540 621 39,000  Level Denver Center
Fri 04:32:12 PM 41.7672 -101.2083 72° East 546 628 39,000  Level Denver Center
Fri 04:33:14 PM 41.8203 -100.9900 72° East 549 632 39,000  Level Denver Center
Fri 04:34:15 PM 41.8664 -100.8011 72° East 553 636 39,000  Level Denver Center
Fri 04:35:17 PM 41.9133 -100.6153 71° East 550 633 39,000  Level Denver Center
Fri 04:36:19 PM 41.9689 -100.3997 71° East 547 629 39,000  Level Denver Center
Fri 04:37:21 PM 42.0169 -100.2214 70° East 532 612 39,000  Level Denver Center
Fri 04:38:23 PM 42.0767 -100.0217 68° East 519 597 39,000  Level Denver Center
Fri 04:39:25 PM 42.1317 -99.8514 66° East 517 595 39,000  Level Denver Center
Fri 04:40:27 PM 42.2011 -99.6558 64° Northeast 524 603 39,000  Level Denver Center
Fri 04:41:29 PM 42.2731 -99.4794 61° Northeast 532 612 39,000  Level Denver Center
Fri 04:42:31 PM 42.3553 -99.3108 57° Northeast 535 616 39,000  Level Denver Center
Fri 04:43:33 PM 42.4439 -99.1428 54° Northeast 544 626 39,000  Level Denver Center
Fri 04:44:35 PM 42.5300 -98.9822 54° Northeast 531 611 39,000  Level Denver Center
Fri 04:45:57 PM 42.6483 -98.7569 54° Northeast 525 604 39,000  Level Minneapolis Center
Fri 04:46:59 PM 42.7336 -98.5964 54° Northeast 524 603 39,000  Level Minneapolis Center
Fri 04:48:01 PM 42.8183 -98.4306 55° Northeast 529 609 39,000  Level Minneapolis Center
Fri 04:49:03 PM 42.9103 -98.2533 55° Northeast 537 618 39,000  Level Minneapolis Center
Fri 04:50:05 PM 42.9958 -98.0856 55° Northeast 538 619 39,000  Level Minneapolis Center
Fri 04:51:07 PM 43.0822 -97.9178 55° Northeast 540 621 39,000  Level Minneapolis Center
Fri 04:52:09 PM 43.1844 -97.7142 55° Northeast 542 624 39,000  Level Minneapolis Center
Fri 04:53:11 PM 43.2689 -97.5436 56° Northeast 543 625 39,000  Level Minneapolis Center
Fri 04:54:13 PM 43.3536 -97.3753 55° Northeast 540 621 39,000  Level Minneapolis Center
Fri 04:55:15 PM 43.4381 -97.2072 55° Northeast 537 618 39,000  Level Minneapolis Center
Fri 04:56:16 PM 43.5219 -97.0369 56° Northeast 539 620 39,000  Level Minneapolis Center
Fri 04:57:18 PM 43.6061 -96.8672 56° Northeast 539 620 39,000  Level Minneapolis Center
Fri 04:58:20 PM 43.7056 -96.6639 56° Northeast 535 616 39,000  Level Minneapolis Center
Fri 04:59:22 PM 43.7828 -96.4903 58° Northeast 533 613 39,000  Level Minneapolis Center
Fri 05:00:24 PM 43.8606 -96.3200 58° Northeast 532 612 39,000  Level Minneapolis Center
Fri 05:01:26 PM 43.9389 -96.1486 58° Northeast 532 612 39,000  Level Minneapolis Center
Fri 05:02:28 PM 44.0336 -95.9442 57° Northeast 535 616 39,000  Level Minneapolis Center
Fri 05:03:30 PM 44.1117 -95.7731 58° Northeast 534 615 39,000  Level Minneapolis Center
Fri 05:04:32 PM 44.1853 -95.5981 60° Northeast 532 612 39,000  Level Minneapolis Center
Fri 05:05:34 PM 44.2031 -95.3972 83° East 526 605 39,000  Level Minneapolis Center
Fri 05:06:35 PM 44.1814 -95.2017 99° East 513 590 39,000  Level Minneapolis Center
Fri 05:07:37 PM 44.1617 -95.0056 98° East 512 589 39,000  Level Minneapolis Center
Fri 05:08:39 PM 44.1344 -94.7703 99° East 514 592 39,000  Level Minneapolis Center
Fri 05:09:41 PM 44.1192 -94.6011 97° East 512 589 39,000  Level Minneapolis Center
Fri 05:10:43 PM 44.0975 -94.4056 99° East 513 590 39,000  Level Minneapolis Center
Fri 05:11:45 PM 44.0711 -94.1700 99° East 516 594 39,000  Level Minneapolis Center
Fri 05:12:47 PM 44.0500 -93.9725 98° East 519 597 39,000  Level Minneapolis Center
Fri 05:13:49 PM 44.0272 -93.7764 99° East 519 597 39,000  Level Minneapolis Center
Fri 05:14:50 PM 44.0044 -93.5797 99° East 520 598 39,000  Level Minneapolis Center
Fri 05:15:52 PM 43.9844 -93.3831 98° East 519 597 39,000  Level Minneapolis Center
Fri 05:16:54 PM 43.9603 -93.1467 98° East 520 598 39,000  Level Minneapolis Center
Fri 05:17:56 PM 43.9383 -92.9500 99° East 520 598 39,000  Level Minneapolis Center
Fri 05:18:59 PM 43.9178 -92.7544 98° East 518 596 39,000  Level Minneapolis Center
Fri 05:20:01 PM 43.8961 -92.5556 99° East 523 602 39,000  Level Minneapolis Center
Fri 05:21:03 PM 43.8739 -92.3592 99° East 520 598 39,000  Level Minneapolis Center
Fri 05:22:05 PM 43.8472 -92.1211 99° East 523 602 39,000  Level Minneapolis Center
Fri 05:23:06 PM 43.8239 -91.9225 99° East 526 605 39,000  Level Minneapolis Center
Fri 05:24:08 PM 43.8014 -91.7233 99° East 525 604 39,000  Level Minneapolis Center
Fri 05:25:10 PM 43.7792 -91.5356 99° East 531 611 39,000  Level Minneapolis Center
Fri 05:26:45 PM 43.7408 -91.2225 100° East 525 604 39,000  Level Chicago Center
Fri 05:27:48 PM 43.7172 -91.0267 99° East 521 600 39,000  Level Chicago Center
Fri 05:28:51 PM 43.6886 -90.7900 99° East 521 600 39,000  Level Chicago Center
Fri 05:29:52 PM 43.6650 -90.5939 99° East 520 598 39,000  Level Chicago Center
Fri 05:30:54 PM 43.6400 -90.3950 100° East 525 604 39,000  Level Chicago Center
Fri 05:31:56 PM 43.6139 -90.2036 101° East 525 604 39,000  Level Chicago Center
Fri 05:32:58 PM 43.5844 -89.9650 100° East 527 606 39,000  Level Chicago Center
Fri 05:34:00 PM 43.5578 -89.7664 100° East 528 608 39,000  Level Chicago Center
Fri 05:35:02 PM 43.5303 -89.5675 101° East 528 608 39,000  Level Chicago Center
Fri 05:36:04 PM 43.5039 -89.3689 100° East 528 608 39,000  Level Chicago Center
Fri 05:37:07 PM 43.4756 -89.1703 101° East 530 610 39,000  Level Chicago Center
Fri 05:38:09 PM 43.4425 -88.9314 101° East 531 611 39,000  Level Chicago Center
Fri 05:39:11 PM 43.4136 -88.7356 101° East 528 608 39,000  Level Chicago Center
Fri 05:40:13 PM 43.3869 -88.5458 101° East 542 624 39,000  Level Chicago Center
Fri 05:41:15 PM 43.3569 -88.3483 102° East 537 618 39,000  Level Chicago Center
Fri 05:42:17 PM 43.3228 -88.1133 101° East 531 611 39,000  Level Chicago Center
Fri 05:43:19 PM 43.2939 -87.9175 101° East 527 606 39,000  Level Chicago Center
Fri 05:44:21 PM 43.2644 -87.7211 102° East 528 608 39,000  Level Chicago Center
Fri 05:45:23 PM 43.2342 -87.5247 102° East 529 609 39,000  Level Chicago Center
Fri 05:46:25 PM 43.2006 -87.3108 102° East 532 612 39,000  Level Chicago Center
Fri 05:47:28 PM 43.1703 -87.1142 102° East 530 610 39,000  Level Chicago Center
Fri 05:48:30 PM 43.1389 -86.9189 102° East 528 608 39,000  Level Chicago Center
Fri 05:49:32 PM 43.1081 -86.7214 102° East 531 611 39,000  Level Chicago Center
Fri 05:50:34 PM 43.0697 -86.4883 103° East 526 605 39,000  Level Chicago Center
Fri 05:51:36 PM 43.0375 -86.2942 103° East 526 605 39,000  Level Chicago Center
Fri 05:52:38 PM 43.0028 -86.0917 103° East 527 606 39,000  Level Chicago Center
Fri 05:53:40 PM 42.9689 -85.8772 102° East 532 612 39,000  Level Chicago Center
Fri 05:54:42 PM 42.9339 -85.6808 104° East 537 618 39,000  Level Chicago Center
Fri 05:55:44 PM 42.9006 -85.4847 103° East 536 617 39,000  Level Chicago Center
Fri 05:56:47 PM 42.8667 -85.2892 103° East 534 615 39,000  Level Chicago Center
Fri 05:57:49 PM 42.8319 -85.0931 104° East 533 613 39,000  Level Chicago Center
Fri 05:58:51 PM 42.7978 -84.8978 103° East 533 613 39,000  Level Chicago Center
Fri 05:59:53 PM 42.7547 -84.6636 104° East 533 613 39,000  Level Chicago Center
Fri 06:00:55 PM 42.7192 -84.4694 104° East 532 612 39,000  Level Chicago Center
Fri 06:02:02 PM 42.6794 -84.2519 104° East 534 615 39,000  Level Cleveland Center
Fri 06:03:04 PM 42.6433 -84.0594 104° East 529 609 39,000  Level Cleveland Center
Fri 06:04:06 PM 42.6056 -83.8653 105° East 531 611 39,000  Level Cleveland Center
Fri 06:05:08 PM 42.5697 -83.6719 104° East 527 606 39,000  Level Cleveland Center
Fri 06:06:10 PM 42.5314 -83.4783 105° East 526 605 39,000  Level Cleveland Center
Fri 06:07:12 PM 42.4858 -83.2442 105° East 527 606 39,000  Level Cleveland Center
Fri 06:08:14 PM 42.4469 -83.0514 105° East 525 604 39,000  Level Cleveland Center
Fri 06:09:17 PM 42.4092 -82.8583 105° East 528 608 39,000  Level Cleveland Center
Fri 06:10:19 PM 42.3753 -82.6650 103° East 528 608 39,000  Level Cleveland Center
Fri 06:11:21 PM 42.3675 -82.4642 93° East 535 616 39,000  Level Cleveland Center
Fri 06:12:23 PM 42.3600 -82.2667 93° East 530 610 39,000  Level Cleveland Center
Fri 06:13:25 PM 42.3514 -82.0506 93° East 530 610 39,000  Level Cleveland Center
Fri 06:14:27 PM 42.3425 -81.8453 93° East 537 618 39,000  Level Cleveland Center
Fri 06:15:29 PM 42.3333 -81.6458 93° East 530 610 39,000  Level Cleveland Center
Fri 06:16:31 PM 42.3239 -81.4428 94° East 533 613 39,000  Level Cleveland Center
Fri 06:17:33 PM 42.3125 -81.2094 94° East 529 609 39,000  Level Cleveland Center
Fri 06:18:36 PM 42.3014 -81.0081 94° East 532 612 39,000  Level Cleveland Center
Fri 06:19:38 PM 42.2911 -80.8081 94° East 530 610 39,000  Level Cleveland Center
Fri 06:20:40 PM 42.2822 -80.6117 93° East 522 601 39,000  Level Cleveland Center
Fri 06:21:42 PM 42.2617 -80.4125 98° East 527 606 39,000  Level Cleveland Center
Fri 06:22:44 PM 42.2339 -80.2136 101° East 534 615 39,000  Level Cleveland Center
Fri 06:23:46 PM 42.2056 -80.0161 101° East 533 613 39,000  Level Cleveland Center
Fri 06:24:48 PM 42.1731 -79.7983 101° East 528 608 39,000  Level Cleveland Center
Fri 06:25:50 PM 42.1436 -79.6050 102° East 531 611 39,000  Level Cleveland Center
Fri 06:26:52 PM 42.1139 -79.4111 102° East 531 611 39,000  Level Cleveland Center
Fri 06:27:54 PM 42.0842 -79.2133 101° East 539 620 39,000  Level Cleveland Center
Fri 06:28:56 PM 42.0475 -78.9781 102° East 538 619 39,000  Level Cleveland Center
Fri 06:29:58 PM 42.0175 -78.7858 102° East 531 611 39,000  Level Cleveland Center
Fri 06:31:00 PM 41.9869 -78.5925 102° East 531 611 39,000  Level Cleveland Center
Fri 06:32:02 PM 41.9558 -78.3992 102° East 530 610 39,000  Level Cleveland Center
Fri 06:33:05 PM 41.9242 -78.2064 102° East 531 611 39,000  Level Cleveland Center
Fri 06:34:07 PM 41.8925 -78.0158 103° East 527 606 39,000  Level Cleveland Center
Fri 06:35:09 PM 41.8486 -77.7894 105° East 526 605 39,000  Level Cleveland Center
Fri 06:35:50 PM 41.8200 -77.6872 111° Southeast 528 608 39,000  Level New York Center
Fri 06:36:50 PM 41.7700 -77.5042 110° East 528 608 39,000  Level New York Center
Fri 06:37:48 PM 41.7219 -77.3214 109° East 528 608 39,000 -356 Level New York Center
Fri 06:38:48 PM 41.6733 -77.1417 110° East 520 598 38,300 -1,377 Descending New York Center
Fri 06:39:50 PM 41.6247 -76.9567 109° East 520 598 36,200 -2,016 Descending New York Center
Fri 06:40:50 PM 41.5778 -76.7775 109° East 520 598 34,200 -2,521 Descending New York Center
Fri 06:41:49 PM 41.5247 -76.5897 111° Southeast 505 581 31,200 -2,975 Descending New York Center
Fri 06:42:49 PM 41.4789 -76.4169 109° East 499 574 28,300 -1,574 Descending New York Center
Fri 06:43:51 PM 41.4289 -76.2383 110° East 505 581 28,000 -151 Descending New York Center
Fri 06:44:48 PM 41.3839 -76.0800 111° Southeast 505 581 28,000  Level New York Center
Fri 06:45:48 PM 41.3369 -75.9186 111° Southeast 493 567 28,000  Level New York Center
Fri 06:46:49 PM 41.2881 -75.7492 111° Southeast 488 562 28,000 -793 Level New York Center
Fri 06:47:49 PM 41.2347 -75.5769 112° Southeast 488 562 26,400 -1,934 Descending New York Center
Fri 06:48:50 PM 41.1808 -75.4133 114° Southeast 486 559 24,100 -1,686 Descending New York Center
Fri 06:49:50 PM 41.1264 -75.2581 115° Southeast 470 541 23,000 -559 Descending New York Center
Fri 06:50:48 PM 41.0758 -75.1033 113° Southeast 464 534 23,000  Level New York Center
Fri 06:51:49 PM 41.0231 -74.9486 114° Southeast 459 528 23,000 -50 Level New York Center
Fri 06:52:49 PM 40.9869 -74.7925 107° East 454 522 22,900 -450 Descending New York Center
Fri 06:53:49 PM 40.9694 -74.6322 98° East 448 516 22,100 -1,388 Descending New York Center
Fri 06:54:50 PM 40.9536 -74.4719 97° East 437 503 20,100 -1,488 Descending New York Center
Fri 06:55:50 PM 40.9375 -74.3228 98° East 422 486 19,100 -468 Descending New York Center
Fri 06:57:11 PM 40.9000 -74.1167 103° East 381 438 19,000 -653 Descending New York TRACON
Fri 06:58:17 PM 40.8000 -74.0333 148° Southeast 356 410 17,500 -1,381 Descending New York TRACON
Fri 06:59:17 PM 40.7167 -73.9833 156° South 344 396 16,100 -1,400 Descending New York TRACON
Fri 07:00:17 PM 40.6333 -73.9333 156° South 342 394 14,700 -1,263 Descending New York TRACON
Fri 07:01:11 PM 40.5833 -73.8500 128° Southeast 334 384 13,700 -1,000 Descending New York TRACON
Fri 07:02:11 PM 40.5500 -73.7500 114° Southeast 336 387 12,800 -1,667 Descending New York TRACON
Fri 07:03:17 PM 40.5167 -73.6333 111° Southeast 308 354 10,200 -2,450 Descending New York TRACON
Fri 07:04:11 PM 40.5167 -73.5333 90° East 297 342 7,900 -2,421 Descending New York TRACON
Fri 07:05:11 PM 40.5833 -73.4667 37° Northeast 274 315 5,600 -1,450 Descending New York TRACON
Fri 07:06:11 PM 40.6500 -73.4167 30° Northeast 276 318 5,000 -316 Descending New York TRACON
Fri 07:07:05 PM 40.7167 -73.4167 360° North 255 293 5,000 -150 Level New York TRACON
Fri 07:08:11 PM 40.7833 -73.4333 349° North 229 264 4,700 -619 Descending New York TRACON
Fri 07:09:11 PM 40.8167 -73.5000 303° West 221 254 3,700 -950 Descending New York TRACON
Fri 07:10:11 PM 40.8500 -73.5667 303° West 202 232 2,800 -850 Descending New York TRACON
Fri 07:11:11 PM 40.8167 -73.6167 229° Southwest 183 211 2,000 -400 Descending New York TRACON
Fri 07:12:11 PM 40.7833 -73.6500 217° Southwest 188 216 2,000 -50 Level New York TRACON
Fri 07:13:11 PM 40.7333 -73.6833 207° Southwest 186 214 1,900 -450 Descending New York TRACON
Fri 07:14:11 PM 40.7000 -73.7167 217° Southwest 145 167 1,100 -700 Descending New York TRACON
Fri 07:15:11 PM 40.6667 -73.7500 217° Southwest 136 157 500 -600 Descending New York TRACON

Login

Don't have an account? Register now (free) for customized features, flight alerts, and more!